createdAt,value
2022-08-03T00:00:31.716Z,17.00
2022-08-03T00:02:59.812Z,16.99
2022-08-03T00:05:27.529Z,17.14
2022-08-03T00:07:55.479Z,16.96
2022-08-03T00:10:23.967Z,16.95
2022-08-03T00:12:51.606Z,17.27
2022-08-03T00:15:19.298Z,17.09
2022-08-03T00:17:52.845Z,17.27
2022-08-03T00:23:10.064Z,17.01
2022-08-03T00:25:38.237Z,16.69
2022-08-03T00:28:06.256Z,16.78
2022-08-03T00:30:37.059Z,16.74
2022-08-03T00:33:04.741Z,16.63
2022-08-03T00:35:50.072Z,16.53
2022-08-03T00:38:19.682Z,16.64
2022-08-03T00:40:47.561Z,16.83
2022-08-03T00:43:15.219Z,16.68
2022-08-03T00:45:44.214Z,17.06
2022-08-03T00:48:29.458Z,17.15
2022-08-03T00:51:00.668Z,16.94
2022-08-03T00:53:28.318Z,16.78
2022-08-03T00:55:56.040Z,16.26
2022-08-03T00:58:24.808Z,16.46
2022-08-03T01:00:52.550Z,16.31
2022-08-03T01:03:20.269Z,16.43
2022-08-03T01:06:03.297Z,16.09
2022-08-03T01:08:48.913Z,16.06
2022-08-03T01:11:20.009Z,15.97
2022-08-03T01:14:04.476Z,16.13
2022-08-03T01:16:57.381Z,16.00
2022-08-03T01:19:24.968Z,16.37
2022-08-03T01:21:55.858Z,15.77
2022-08-03T01:24:52.191Z,15.65
2022-08-03T01:27:23.647Z,16.07
2022-08-03T01:29:56.445Z,15.99
2022-08-03T01:32:58.533Z,15.98
2022-08-03T01:35:29.917Z,15.92
2022-08-03T01:38:03.369Z,16.09
2022-08-03T01:40:32.677Z,15.77
2022-08-03T01:43:02.572Z,15.74
2022-08-03T01:45:34.090Z,15.80
2022-08-03T01:48:03.043Z,15.79
2022-08-03T01:50:32.033Z,15.76
2022-08-03T01:53:00.358Z,15.87
2022-08-03T01:55:30.045Z,15.98
2022-08-03T01:58:06.177Z,15.97
2022-08-03T02:00:38.234Z,16.07
2022-08-03T02:03:07.317Z,15.92
2022-08-03T02:05:35.428Z,16.08
2022-08-03T02:08:04.831Z,15.92
2022-08-03T02:10:34.590Z,16.10
2022-08-03T02:13:04.553Z,16.29
2022-08-03T02:15:36.318Z,16.27
2022-08-03T02:18:06.471Z,15.84
2022-08-03T02:20:36.721Z,15.74
2022-08-03T02:23:06.923Z,15.76
2022-08-03T02:25:39.205Z,16.24
2022-08-03T02:28:10.929Z,16.34
2022-08-03T02:30:39.675Z,16.32
2022-08-03T02:33:11.392Z,16.44
2022-08-03T02:35:40.379Z,16.49
2022-08-03T02:38:10.638Z,16.62
2022-08-03T02:40:39.268Z,16.52
2022-08-03T02:43:09.622Z,16.46
2022-08-03T02:45:45.542Z,16.54
2022-08-03T02:48:16.755Z,16.59
2022-08-03T02:50:45.483Z,16.78
2022-08-03T02:53:14.028Z,16.85
2022-08-03T02:55:43.263Z,16.84
2022-08-03T02:58:15.031Z,16.58
2022-08-03T03:00:44.535Z,16.61
2022-08-03T03:03:12.991Z,17.04
2022-08-03T03:05:52.135Z,17.23
2022-08-03T03:08:26.027Z,17.04
2022-08-03T03:10:56.419Z,17.39
2022-08-03T03:13:24.560Z,17.59
2022-08-03T03:15:53.046Z,17.31
2022-08-03T03:18:22.862Z,17.87
2022-08-03T03:20:53.226Z,18.12
2022-08-03T03:23:25.418Z,17.97
2022-08-03T03:25:53.621Z,18.26
2022-08-03T03:28:22.087Z,18.11
2022-08-03T03:30:52.624Z,18.68
2022-08-03T03:33:22.241Z,19.08
2022-08-03T03:35:50.511Z,19.30
2022-08-03T03:38:18.613Z,19.51
2022-08-03T03:40:46.901Z,19.62
2022-08-03T03:43:14.780Z,19.66
2022-08-03T03:48:28.707Z,19.80
2022-08-03T03:50:57.646Z,19.85
2022-08-03T03:53:25.540Z,19.86
2022-08-03T03:56:01.181Z,19.99
2022-08-03T03:58:31.548Z,20.36
2022-08-03T04:00:59.929Z,20.61
2022-08-03T04:03:28.342Z,20.83
2022-08-03T04:06:14.757Z,21.16
2022-08-03T04:09:01.641Z,21.35
2022-08-03T04:11:33.549Z,21.69
2022-08-03T04:14:06.476Z,21.93
2022-08-03T04:16:35.673Z,22.22
2022-08-03T04:19:08.564Z,22.54
2022-08-03T04:21:38.544Z,22.77
2022-08-03T04:24:09.384Z,23.11
2022-08-03T04:26:39.884Z,23.39
2022-08-03T04:29:09.794Z,23.62
2022-08-03T04:31:38.828Z,23.92
2022-08-03T04:34:06.668Z,24.12
2022-08-03T04:36:37.807Z,24.22
2022-08-03T04:39:08.920Z,24.64
2022-08-03T04:42:07.329Z,24.72
2022-08-03T04:44:28.352Z,24.70
2022-08-03T04:46:57.426Z,24.62
2022-08-03T04:49:25.958Z,24.55
2022-08-03T04:51:53.644Z,24.66
2022-08-03T04:54:21.704Z,24.94
2022-08-03T04:56:49.314Z,25.22
2022-08-03T04:59:18.159Z,25.64
2022-08-03T05:01:46.279Z,26.13
2022-08-03T05:04:14.104Z,26.59
2022-08-03T05:06:48.028Z,26.92
2022-08-03T05:09:50.783Z,27.11
2022-08-03T05:12:07.170Z,27.37
2022-08-03T05:14:38.082Z,27.60
2022-08-03T05:17:06.192Z,27.80
2022-08-03T05:19:33.896Z,28.04
2022-08-03T05:22:02.043Z,28.28
2022-08-03T05:24:29.752Z,28.38
2022-08-03T05:26:57.415Z,28.49
2022-08-03T05:29:25.426Z,28.70
2022-08-03T05:31:53.049Z,28.91
2022-08-03T05:34:20.698Z,29.14
2022-08-03T05:36:48.793Z,29.29
2022-08-03T05:39:16.552Z,29.73
2022-08-03T05:41:44.292Z,30.02
2022-08-03T05:44:12.421Z,30.32
2022-08-03T05:46:40.035Z,30.40
2022-08-03T05:49:07.791Z,30.29
2022-08-03T05:51:35.932Z,30.20
2022-08-03T05:54:03.789Z,30.32
2022-08-03T05:56:31.512Z,30.87
2022-08-03T05:59:07.360Z,31.30
2022-08-03T06:01:47.330Z,31.65
2022-08-03T06:04:15.585Z,31.98
2022-08-03T06:06:43.893Z,32.56
2022-08-03T06:09:11.521Z,32.56
2022-08-03T06:11:40.630Z,32.85
2022-08-03T06:14:08.418Z,33.24
2022-08-03T06:16:36.278Z,33.32
2022-08-03T06:19:04.316Z,32.92
2022-08-03T06:21:32.216Z,33.83
2022-08-03T06:23:59.924Z,34.32
2022-08-03T06:26:30.765Z,34.35
2022-08-03T06:28:58.553Z,34.35
2022-08-03T06:31:32.680Z,34.29
2022-08-03T06:34:30.360Z,34.39
2022-08-03T06:36:52.271Z,34.32
2022-08-03T06:39:23.408Z,34.56
2022-08-03T06:41:52.174Z,34.81
2022-08-03T06:44:20.434Z,35.04
2022-08-03T06:46:48.255Z,35.23
2022-08-03T06:49:16.120Z,35.67
2022-08-03T06:52:04.060Z,35.79
2022-08-03T06:54:33.245Z,35.96
2022-08-03T06:57:01.650Z,36.24
2022-08-03T07:00:08.274Z,36.66
2022-08-03T07:02:19.951Z,36.74
2022-08-03T07:04:48.482Z,36.88
2022-08-03T07:07:16.125Z,37.10
2022-08-03T07:09:57.798Z,37.14
2022-08-03T07:12:29.784Z,37.35
2022-08-03T07:15:01.153Z,37.96
2022-08-03T07:17:35.924Z,37.88
2022-08-03T07:20:05.712Z,36.51
2022-08-03T07:22:33.903Z,36.70
2022-08-03T07:25:01.746Z,37.61
2022-08-03T07:27:30.959Z,38.36
2022-08-03T07:32:49.831Z,38.14
2022-08-03T07:35:25.320Z,39.02
2022-08-03T07:37:55.059Z,39.37
2022-08-03T07:40:23.195Z,39.69
2022-08-03T07:42:55.094Z,39.80
2022-08-03T07:45:24.043Z,40.00
2022-08-03T07:47:53.897Z,40.28
2022-08-03T07:50:22.670Z,39.93
2022-08-03T07:52:51.985Z,39.91
2022-08-03T07:55:21.328Z,40.08
2022-08-03T07:58:00.037Z,40.56
2022-08-03T08:00:27.829Z,38.08
2022-08-03T08:02:55.881Z,39.64
2022-08-03T08:05:23.599Z,39.52
2022-08-03T08:07:51.890Z,37.96
2022-08-03T08:10:20.198Z,38.82
2022-08-03T08:12:48.604Z,39.46
2022-08-03T08:15:16.472Z,40.29
2022-08-03T08:17:54.906Z,40.87
2022-08-03T08:20:30.481Z,37.77
2022-08-03T08:23:01.391Z,39.20
2022-08-03T08:25:30.561Z,41.02
2022-08-03T08:28:29.785Z,40.98
2022-08-03T08:30:46.689Z,42.10
2022-08-03T08:33:22.426Z,41.82
2022-08-03T08:35:53.492Z,39.92
2022-08-03T08:38:21.539Z,40.21
2022-08-03T08:40:49.984Z,41.58
2022-08-03T08:43:17.977Z,40.77
2022-08-03T08:45:46.314Z,38.07
2022-08-03T08:48:14.990Z,38.69
2022-08-03T08:50:43.534Z,41.34
2022-08-03T08:53:18.189Z,41.06
2022-08-03T08:55:58.248Z,41.85
2022-08-03T08:58:35.261Z,42.49
2022-08-03T09:01:04.467Z,42.10
2022-08-03T09:03:33.676Z,41.52
2022-08-03T09:06:05.738Z,41.18
2022-08-03T09:08:33.995Z,42.05
2022-08-03T09:11:01.689Z,39.60
2022-08-03T09:13:30.766Z,41.07
2022-08-03T09:16:14.225Z,40.73
2022-08-03T09:18:43.299Z,41.25
2022-08-03T09:21:31.762Z,39.79
2022-08-03T09:24:03.794Z,41.67
2022-08-03T09:26:34.593Z,40.61
2022-08-03T09:29:11.180Z,42.47
2022-08-03T09:31:46.482Z,39.44
2022-08-03T09:34:17.978Z,38.35
2022-08-03T09:36:50.999Z,41.20
2022-08-03T09:39:41.678Z,40.38
2022-08-03T09:42:27.865Z,38.74
2022-08-03T09:44:55.529Z,37.22
2022-08-03T09:47:30.846Z,39.11
2022-08-03T09:50:06.019Z,38.41
2022-08-03T09:52:39.502Z,39.18
2022-08-03T09:56:33.494Z,40.76
2022-08-03T10:00:56.456Z,37.55
2022-08-03T10:03:25.426Z,41.26
2022-08-03T10:05:59.054Z,41.57
2022-08-03T10:08:27.820Z,35.98
2022-08-03T10:10:55.598Z,39.71
2022-08-03T10:13:41.983Z,39.43
2022-08-03T10:16:23.954Z,41.78
2022-08-03T10:18:52.795Z,41.94
2022-08-03T10:21:21.432Z,37.92
2022-08-03T10:23:50.333Z,37.55
2022-08-03T10:26:19.558Z,36.84
2022-08-03T10:28:49.863Z,37.45
2022-08-03T10:31:18.827Z,38.63
2022-08-03T10:33:52.817Z,39.73
2022-08-03T10:36:24.900Z,41.40
2022-08-03T10:38:53.942Z,39.35
2022-08-03T10:41:22.732Z,36.67
2022-08-03T10:44:03.397Z,35.94
2022-08-03T10:46:33.620Z,37.36
2022-08-03T10:49:01.497Z,39.59
2022-08-03T10:51:32.444Z,40.79
2022-08-03T10:54:01.697Z,37.86
2022-08-03T10:56:51.490Z,37.41
2022-08-03T10:59:27.976Z,37.53
2022-08-03T11:02:00.270Z,36.03
2022-08-03T11:04:30.516Z,38.82
2022-08-03T11:07:19.915Z,38.53
2022-08-03T11:09:52.450Z,37.60
2022-08-03T11:12:29.851Z,37.63
2022-08-03T11:15:05.490Z,35.03
2022-08-03T11:17:46.646Z,34.45
2022-08-03T11:20:41.137Z,42.27
2022-08-03T11:23:08.886Z,39.87
2022-08-03T11:25:55.718Z,41.18
2022-08-03T11:28:28.230Z,39.39
2022-08-03T11:30:56.323Z,36.19
2022-08-03T11:33:33.604Z,33.84
2022-08-03T11:36:02.848Z,34.61
2022-08-03T11:38:30.598Z,33.79
2022-08-03T11:40:58.418Z,33.37
2022-08-03T11:43:31.373Z,36.01
2022-08-03T11:46:00.685Z,37.75
2022-08-03T11:48:39.119Z,37.36
2022-08-03T11:51:19.085Z,37.13
2022-08-03T11:53:49.902Z,36.43
2022-08-03T11:56:17.586Z,35.21
2022-08-03T11:59:01.745Z,35.08
2022-08-03T12:01:37.923Z,35.40
2022-08-03T12:04:06.616Z,35.09
2022-08-03T12:06:57.445Z,34.75
2022-08-03T12:09:25.544Z,35.03
2022-08-03T12:11:59.616Z,35.85
2022-08-03T12:14:48.890Z,36.60
2022-08-03T12:17:19.613Z,36.16
2022-08-03T12:19:47.931Z,34.68
2022-08-03T12:22:17.211Z,33.72
2022-08-03T12:24:47.255Z,32.99
2022-08-03T12:27:25.819Z,33.01
2022-08-03T12:32:40.219Z,34.35
2022-08-03T12:37:53.466Z,34.72
2022-08-03T12:40:28.452Z,36.27
2022-08-03T12:42:56.811Z,37.52
2022-08-03T12:45:25.756Z,37.95
2022-08-03T12:48:00.555Z,37.94
2022-08-03T12:50:31.396Z,37.81
2022-08-03T12:53:00.438Z,37.56
2022-08-03T12:55:56.621Z,37.61
2022-08-03T12:58:35.763Z,37.25
2022-08-03T13:01:09.538Z,36.79
2022-08-03T13:03:43.375Z,36.55
2022-08-03T13:06:15.140Z,36.39
2022-08-03T13:08:43.552Z,36.71
2022-08-03T13:11:23.706Z,36.10
2022-08-03T13:14:13.438Z,35.66
2022-08-03T13:16:44.601Z,35.44
2022-08-03T13:19:15.847Z,34.70
2022-08-03T13:21:53.813Z,34.21
2022-08-03T13:24:33.927Z,35.57
2022-08-03T13:28:10.993Z,35.20
2022-08-03T13:29:51.321Z,34.62
2022-08-03T13:32:19.475Z,34.86
2022-08-03T13:34:49.691Z,34.93
2022-08-03T13:40:04.733Z,33.72
2022-08-03T13:42:34.408Z,33.15
2022-08-03T13:45:02.757Z,32.77
2022-08-03T13:47:32.312Z,32.47
2022-08-03T13:50:02.942Z,32.28
2022-08-03T13:52:44.496Z,31.91
2022-08-03T13:55:12.866Z,31.83
2022-08-03T13:58:03.080Z,32.56
2022-08-03T14:00:34.992Z,34.68
2022-08-03T14:03:10.813Z,37.21
2022-08-03T14:05:40.578Z,38.56
2022-08-03T14:08:09.038Z,39.54
2022-08-03T14:10:38.559Z,39.80
2022-08-03T14:13:06.243Z,40.19
2022-08-03T14:15:37.924Z,40.38
2022-08-03T14:18:07.022Z,39.83
2022-08-03T14:20:38.581Z,39.28
2022-08-03T14:23:15.431Z,39.13
2022-08-03T14:25:51.555Z,39.05
2022-08-03T14:28:21.619Z,38.51
2022-08-03T14:30:50.161Z,38.17
2022-08-03T14:33:18.186Z,37.24
2022-08-03T14:35:45.895Z,37.29
2022-08-03T14:38:14.096Z,37.53
2022-08-03T14:40:42.035Z,38.07
2022-08-03T14:43:09.792Z,38.19
2022-08-03T14:45:38.604Z,38.12
2022-08-03T14:50:32.769Z,38.29
2022-08-03T14:50:57.107Z,38.22
2022-08-03T14:53:24.840Z,38.62
2022-08-03T14:55:53.731Z,38.46
2022-08-03T14:58:28.587Z,38.70
2022-08-03T15:00:56.793Z,38.85
2022-08-03T15:03:25.309Z,37.55
2022-08-03T15:05:53.726Z,36.10
2022-08-03T15:08:22.431Z,36.36
2022-08-03T15:10:50.886Z,35.68
2022-08-03T15:13:19.806Z,34.56
2022-08-03T15:15:48.332Z,33.53
2022-08-03T15:18:16.339Z,32.76
2022-08-03T15:20:45.965Z,32.60
2022-08-03T15:23:14.945Z,32.38
2022-08-03T15:26:28.792Z,32.59
2022-08-03T15:28:32.285Z,31.38
2022-08-03T15:31:00.750Z,31.89
2022-08-03T15:33:28.790Z,31.49
2022-08-03T15:35:57.098Z,31.27
2022-08-03T15:38:25.944Z,32.61
2022-08-03T15:40:54.954Z,31.84
2022-08-03T15:43:25.532Z,31.71
2022-08-03T15:48:41.740Z,31.30
2022-08-03T15:51:09.993Z,30.92
2022-08-03T15:53:39.417Z,31.68
2022-08-03T15:56:14.249Z,31.44
2022-08-03T15:58:59.573Z,30.80
2022-08-03T16:01:33.182Z,30.46
2022-08-03T16:04:01.296Z,30.25
2022-08-03T16:06:35.321Z,29.83
2022-08-03T16:09:05.676Z,29.83
2022-08-03T16:11:51.043Z,29.73
2022-08-03T16:14:34.651Z,30.41
2022-08-03T16:17:05.766Z,30.80
2022-08-03T16:19:33.808Z,31.06
2022-08-03T16:22:03.333Z,30.85
2022-08-03T16:24:31.163Z,30.16
2022-08-03T16:27:00.462Z,29.86
2022-08-03T16:29:28.967Z,29.30
2022-08-03T16:31:56.731Z,29.12
2022-08-03T16:34:43.405Z,29.05
2022-08-03T16:37:36.613Z,29.32
2022-08-03T16:39:59.211Z,29.43
2022-08-03T16:42:26.820Z,29.13
2022-08-03T16:44:54.557Z,28.98
2022-08-03T16:47:23.022Z,29.05
2022-08-03T16:49:54.715Z,28.75
2022-08-03T16:52:25.187Z,28.05
2022-08-03T16:54:54.063Z,28.30
2022-08-03T16:57:58.321Z,28.19
2022-08-03T17:00:11.850Z,28.02
2022-08-03T17:02:48.112Z,27.78
2022-08-03T17:05:16.564Z,27.52
2022-08-03T17:07:46.832Z,26.75
2022-08-03T17:13:03.790Z,26.57
2022-08-03T17:15:38.384Z,26.61
2022-08-03T17:18:24.379Z,26.53
2022-08-03T17:20:55.406Z,26.12
2022-08-03T17:23:35.248Z,25.84
2022-08-03T17:26:09.776Z,25.75
2022-08-03T17:28:50.093Z,25.33
2022-08-03T17:31:31.302Z,25.44
2022-08-03T17:34:04.213Z,25.35
2022-08-03T17:37:02.049Z,24.93
2022-08-03T17:39:41.751Z,24.66
2022-08-03T17:42:38.848Z,24.37
2022-08-03T17:44:58.224Z,24.34
2022-08-03T17:47:42.088Z,24.04
2022-08-03T17:50:24.806Z,24.35
2022-08-03T17:53:00.883Z,23.64
2022-08-03T17:55:56.942Z,23.58
2022-08-03T17:58:25.323Z,23.56
2022-08-03T18:02:00.442Z,23.43
2022-08-03T18:04:11.198Z,23.35
2022-08-03T18:06:55.716Z,23.39
2022-08-03T18:10:06.363Z,22.94
2022-08-03T18:12:26.139Z,22.75
2022-08-03T18:15:01.226Z,21.90
2022-08-03T18:17:55.805Z,22.03
2022-08-03T18:20:33.172Z,22.19
2022-08-03T18:23:09.868Z,22.30
2022-08-03T18:25:49.101Z,22.11
2022-08-03T18:28:38.804Z,22.20
2022-08-03T18:31:09.428Z,22.44
2022-08-03T18:34:19.158Z,22.06
2022-08-03T18:36:30.082Z,21.96
2022-08-03T18:39:02.580Z,21.75
2022-08-03T18:41:35.423Z,22.05
2022-08-03T18:47:15.915Z,21.73
2022-08-03T18:49:50.489Z,22.01
2022-08-03T18:52:27.623Z,21.77
2022-08-03T18:55:07.320Z,21.76
2022-08-03T18:57:49.269Z,22.00
2022-08-03T19:00:24.958Z,21.75
2022-08-03T19:03:20.583Z,22.08
2022-08-03T19:06:03.040Z,22.16
2022-08-03T19:08:56.050Z,21.89
2022-08-03T19:11:27.888Z,21.32
2022-08-03T19:13:57.225Z,21.28
2022-08-03T19:16:31.084Z,21.22
2022-08-03T19:19:01.731Z,20.90
2022-08-03T19:21:30.701Z,21.01
2022-08-03T19:24:06.590Z,20.98
2022-08-03T19:26:39.746Z,21.08
2022-08-03T19:29:14.910Z,21.12
2022-08-03T19:31:59.136Z,21.13
2022-08-03T19:34:29.016Z,21.06
2022-08-03T19:36:58.997Z,21.04
2022-08-03T19:39:26.972Z,20.83
2022-08-03T19:41:58.739Z,20.69
2022-08-03T19:44:38.110Z,20.51
2022-08-03T19:47:17.040Z,20.36
2022-08-03T19:50:06.045Z,20.36
2022-08-03T19:52:35.867Z,20.73
2022-08-03T19:55:12.180Z,20.79
2022-08-03T19:57:43.249Z,20.72
2022-08-03T20:00:13.909Z,20.53
2022-08-03T20:02:43.007Z,20.19
2022-08-03T20:05:15.356Z,19.88
2022-08-03T20:07:48.198Z,20.01
2022-08-03T20:10:17.030Z,20.39
2022-08-03T20:12:46.362Z,20.39
2022-08-03T20:15:18.391Z,19.93
2022-08-03T20:17:59.816Z,20.35
2022-08-03T20:20:32.937Z,20.67
2022-08-03T20:23:03.497Z,20.51
2022-08-03T20:28:26.777Z,20.05
2022-08-03T20:30:54.768Z,20.11
2022-08-03T20:33:27.639Z,20.29
2022-08-03T20:35:56.105Z,20.39
2022-08-03T20:39:07.935Z,20.82
2022-08-03T20:41:37.268Z,20.82
2022-08-03T20:44:06.466Z,20.58
2022-08-03T20:46:50.218Z,20.62
2022-08-03T20:49:23.231Z,20.60
2022-08-03T20:51:53.211Z,20.43
2022-08-03T20:54:30.533Z,20.37
2022-08-03T20:57:04.152Z,20.33
2022-08-03T21:02:30.112Z,19.93
2022-08-03T21:05:03.654Z,19.96
2022-08-03T21:08:04.952Z,20.12
2022-08-03T21:10:37.893Z,20.16
2022-08-03T21:13:04.792Z,21.92
2022-08-03T21:13:07.829Z,20.16
2022-08-03T21:13:25.211Z,20.32
2022-08-03T21:16:12.361Z,20.32
2022-08-03T21:18:52.269Z,20.26
2022-08-03T21:21:21.573Z,20.18
2022-08-03T21:23:51.482Z,20.21
2022-08-03T21:26:20.245Z,19.94
2022-08-03T21:28:49.115Z,19.64
2022-08-03T21:31:25.763Z,19.21
2022-08-03T21:33:55.941Z,19.42
2022-08-03T21:36:24.906Z,19.55
2022-08-03T21:38:56.469Z,19.53
2022-08-03T21:41:26.842Z,19.41
2022-08-03T21:43:54.598Z,19.32
2022-08-03T21:46:23.323Z,19.30
2022-08-03T21:48:54.721Z,19.55
2022-08-03T21:51:25.168Z,19.54
2022-08-03T21:54:03.870Z,19.44
2022-08-03T21:56:36.610Z,19.67
2022-08-03T22:01:55.355Z,19.33
2022-08-03T22:04:53.231Z,19.06
2022-08-03T22:07:14.731Z,18.74
2022-08-03T22:09:51.045Z,18.62
2022-08-03T22:12:21.717Z,18.76
2022-08-03T22:14:50.445Z,18.53
2022-08-03T22:17:55.060Z,18.10
2022-08-03T22:20:17.161Z,17.60
2022-08-03T22:22:55.744Z,18.04
2022-08-03T22:25:27.861Z,18.23
2022-08-03T22:27:55.635Z,18.34
2022-08-03T22:30:23.328Z,17.82
2022-08-03T22:32:53.830Z,17.60
2022-08-03T22:35:21.939Z,18.03
2022-08-03T22:37:52.632Z,18.10
2022-08-03T22:40:20.973Z,18.27
2022-08-03T22:42:52.128Z,18.39
2022-08-03T22:46:06.817Z,17.87
2022-08-03T22:48:08.815Z,17.80
2022-08-03T22:50:37.522Z,17.85
2022-08-03T22:53:07.045Z,17.79
2022-08-03T22:55:34.806Z,17.79
2022-08-03T22:58:02.922Z,17.74
2022-08-03T23:00:30.594Z,17.77
2022-08-03T23:03:00.713Z,17.61
2022-08-03T23:08:15.569Z,17.69
2022-08-03T23:10:47.334Z,17.81
2022-08-03T23:13:17.031Z,17.18
2022-08-03T23:15:51.619Z,16.37
2022-08-03T23:18:20.937Z,16.35
2022-08-03T23:20:52.937Z,16.23
2022-08-03T23:23:20.852Z,16.13
2022-08-03T23:25:50.128Z,15.99
2022-08-03T23:28:24.992Z,16.04
2022-08-03T23:31:07.585Z,16.01
2022-08-03T23:33:40.628Z,16.14
2022-08-03T23:36:31.113Z,15.97
2022-08-03T23:39:03.098Z,15.85
2022-08-03T23:41:32.869Z,16.19
2022-08-03T23:44:05.347Z,16.20
2022-08-03T23:46:36.943Z,16.22
2022-08-03T23:49:05.795Z,16.08
2022-08-03T23:52:03.827Z,16.06
2022-08-03T23:54:32.903Z,16.02
2022-08-03T23:57:09.305Z,16.12
2022-08-03T23:59:38.188Z,16.26
